createdAt,value
2023-02-15T00:00:20.033Z,-0.65
2023-02-15T00:00:51.569Z,-0.62
2023-02-15T00:01:23.212Z,-0.68
2023-02-15T00:01:55.504Z,-0.60
2023-02-15T00:02:27.361Z,-0.66
2023-02-15T00:02:58.939Z,-0.81
2023-02-15T00:03:30.650Z,-0.78
2023-02-15T00:04:02.477Z,-0.70
2023-02-15T00:04:49.150Z,-0.71
2023-02-15T00:05:20.694Z,-0.74
2023-02-15T00:05:52.260Z,-0.87
2023-02-15T00:06:23.827Z,-0.90
2023-02-15T00:06:55.380Z,-0.86
2023-02-15T00:07:26.893Z,-0.73
2023-02-15T00:07:58.454Z,-0.82
2023-02-15T00:08:30.009Z,-0.70
2023-02-15T00:09:02.182Z,-0.68
2023-02-15T00:09:33.726Z,-0.79
2023-02-15T00:10:06.152Z,-0.84
2023-02-15T00:10:37.666Z,-0.89
2023-02-15T00:11:11.762Z,-0.95
2023-02-15T00:11:52.889Z,-1.00
2023-02-15T00:12:24.439Z,-1.08
2023-02-15T00:12:55.949Z,-1.11
2023-02-15T00:13:27.496Z,-1.16
2023-02-15T00:13:59.491Z,-1.06
2023-02-15T00:14:31.040Z,-1.10
2023-02-15T00:15:04.289Z,-1.20
2023-02-15T00:15:35.817Z,-1.26
2023-02-15T00:16:10.096Z,-1.31
2023-02-15T00:16:43.157Z,-1.33
2023-02-15T00:17:14.842Z,-1.43
2023-02-15T00:17:46.561Z,-1.53
2023-02-15T00:18:18.082Z,-1.58
2023-02-15T00:18:52.968Z,-1.61
2023-02-15T00:19:24.532Z,-1.61
2023-02-15T00:19:56.087Z,-1.62
2023-02-15T00:20:27.784Z,-1.64
2023-02-15T00:20:59.616Z,-1.62
2023-02-15T00:21:32.821Z,-1.52
2023-02-15T00:22:04.397Z,-1.49
2023-02-15T00:22:35.953Z,-1.46
2023-02-15T00:23:07.577Z,-1.51
2023-02-15T00:23:39.144Z,-1.56
2023-02-15T00:24:12.495Z,-1.60
2023-02-15T00:24:44.035Z,-1.63
2023-02-15T00:25:15.790Z,-1.64
2023-02-15T00:25:47.384Z,-1.63
2023-02-15T00:26:18.920Z,-1.64
2023-02-15T00:26:50.499Z,-1.68
2023-02-15T00:27:22.647Z,-1.67
2023-02-15T00:27:54.173Z,-1.64
2023-02-15T00:28:25.748Z,-1.58
2023-02-15T00:28:59.935Z,-1.40
2023-02-15T00:29:32.615Z,-1.50
2023-02-15T00:30:04.378Z,-1.54
2023-02-15T00:30:36.008Z,-1.56
2023-02-15T00:31:09.615Z,-1.52
2023-02-15T00:31:41.696Z,-1.55
2023-02-15T00:32:13.293Z,-1.58
2023-02-15T00:32:48.619Z,-1.48
2023-02-15T00:33:20.246Z,-1.46
2023-02-15T00:33:51.891Z,-1.39
2023-02-15T00:34:25.684Z,-1.30
2023-02-15T00:34:57.210Z,-1.24
2023-02-15T00:35:29.426Z,-1.11
2023-02-15T00:36:01.950Z,-1.09
2023-02-15T00:36:34.067Z,-1.06
2023-02-15T00:37:05.760Z,-1.12
2023-02-15T00:37:37.273Z,-1.17
2023-02-15T00:38:08.867Z,-1.17
2023-02-15T00:38:40.757Z,-1.05
2023-02-15T00:39:12.944Z,-1.09
2023-02-15T00:39:44.581Z,-1.05
2023-02-15T00:40:16.103Z,-1.04
2023-02-15T00:40:53.562Z,-1.10
2023-02-15T00:41:25.215Z,-1.10
2023-02-15T00:41:56.891Z,-1.09
2023-02-15T00:42:28.649Z,-1.11
2023-02-15T00:43:00.268Z,-1.11
2023-02-15T00:43:33.026Z,-1.12
2023-02-15T00:44:05.111Z,-1.11
2023-02-15T00:44:36.747Z,-1.03
2023-02-15T00:45:10.142Z,-0.96
2023-02-15T00:45:41.713Z,-0.89
2023-02-15T00:46:13.333Z,-0.90
2023-02-15T00:46:44.940Z,-0.90
2023-02-15T00:47:16.483Z,-0.92
2023-02-15T00:47:48.472Z,-1.00
2023-02-15T00:48:21.107Z,-1.13
2023-02-15T00:48:52.668Z,-1.25
2023-02-15T00:49:24.267Z,-1.31
2023-02-15T00:49:55.812Z,-1.35
2023-02-15T00:50:27.419Z,-1.33
2023-02-15T00:51:00.929Z,-1.40
2023-02-15T00:51:32.977Z,-1.42
2023-02-15T00:52:04.807Z,-1.44
2023-02-15T00:52:36.368Z,-1.41
2023-02-15T00:53:08.787Z,-1.43
2023-02-15T00:53:40.428Z,-1.45
2023-02-15T00:54:12.692Z,-1.51
2023-02-15T00:54:44.268Z,-1.51
2023-02-15T00:55:16.474Z,-1.50
2023-02-15T00:55:48.704Z,-1.47
2023-02-15T00:56:20.550Z,-1.37
2023-02-15T00:56:52.100Z,-1.39
2023-02-15T00:57:23.958Z,-1.39
2023-02-15T00:57:55.511Z,-1.40
2023-02-15T00:58:27.204Z,-1.35
2023-02-15T00:58:58.758Z,-1.33
2023-02-15T00:59:30.302Z,-1.38
2023-02-15T01:00:01.875Z,-1.46
2023-02-15T01:00:33.472Z,-1.36
2023-02-15T01:01:07.587Z,-1.24
2023-02-15T01:01:39.383Z,-1.12
2023-02-15T01:02:10.945Z,-1.09
2023-02-15T01:02:42.490Z,-1.08
2023-02-15T01:03:15.461Z,-1.07
2023-02-15T01:03:47.674Z,-1.10
2023-02-15T01:04:19.724Z,-1.10
2023-02-15T01:04:51.359Z,-1.06
2023-02-15T01:05:22.931Z,-0.97
2023-02-15T01:05:54.470Z,-0.99
2023-02-15T01:06:26.049Z,-0.98
2023-02-15T01:06:57.636Z,-0.96
2023-02-15T01:07:29.209Z,-0.96
2023-02-15T01:08:01.022Z,-0.98
2023-02-15T01:08:32.588Z,-1.02
2023-02-15T01:09:04.300Z,-1.01
2023-02-15T01:09:35.832Z,-1.05
2023-02-15T01:10:08.732Z,-1.13
2023-02-15T01:10:40.807Z,-1.07
2023-02-15T01:11:16.108Z,-1.15
2023-02-15T01:11:47.672Z,-1.31
2023-02-15T01:12:19.197Z,-1.37
2023-02-15T01:12:53.708Z,-1.19
2023-02-15T01:13:25.248Z,-1.26
2023-02-15T01:13:59.552Z,-1.34
2023-02-15T01:14:31.119Z,-1.22
2023-02-15T01:15:02.670Z,-1.19
2023-02-15T01:15:37.372Z,-1.24
2023-02-15T01:16:09.482Z,-1.33
2023-02-15T01:16:41.169Z,-1.26
2023-02-15T01:17:12.791Z,-1.22
2023-02-15T01:17:46.715Z,-1.34
2023-02-15T01:18:18.474Z,-1.19
2023-02-15T01:18:50.125Z,-1.42
2023-02-15T01:19:21.697Z,-1.38
2023-02-15T01:19:53.312Z,-1.45
2023-02-15T01:20:27.128Z,-1.53
2023-02-15T01:20:58.675Z,-1.60
2023-02-15T01:21:30.367Z,-1.56
2023-02-15T01:22:01.888Z,-1.55
2023-02-15T01:22:33.707Z,-1.51
2023-02-15T01:23:07.228Z,-1.49
2023-02-15T01:23:38.960Z,-1.48
2023-02-15T01:24:14.631Z,-1.40
2023-02-15T01:24:46.487Z,-1.46
2023-02-15T01:25:18.833Z,-1.45
2023-02-15T01:25:50.554Z,-1.65
2023-02-15T01:26:22.229Z,-1.74
2023-02-15T01:26:53.780Z,-1.82
2023-02-15T01:27:25.358Z,-1.88
2023-02-15T01:27:57.074Z,-1.71
2023-02-15T01:28:28.618Z,-1.77
2023-02-15T01:29:00.511Z,-1.86
2023-02-15T01:29:32.184Z,-1.84
2023-02-15T01:30:05.663Z,-1.89
2023-02-15T01:30:37.355Z,-1.78
2023-02-15T01:31:10.750Z,-1.76
2023-02-15T01:31:42.874Z,-1.70
2023-02-15T01:32:14.547Z,-1.58
2023-02-15T01:32:48.435Z,-1.65
2023-02-15T01:33:19.951Z,-1.70
2023-02-15T01:33:51.494Z,-1.67
2023-02-15T01:34:23.168Z,-1.64
2023-02-15T01:34:54.788Z,-1.53
2023-02-15T01:35:26.323Z,-1.56
2023-02-15T01:36:00.054Z,-1.58
2023-02-15T01:36:32.782Z,-1.60
2023-02-15T01:37:04.491Z,-1.73
2023-02-15T01:37:36.262Z,-1.65
2023-02-15T01:38:07.802Z,-1.62
2023-02-15T01:38:40.962Z,-1.68
2023-02-15T01:39:12.525Z,-1.69
2023-02-15T01:39:44.118Z,-1.73
2023-02-15T01:40:17.918Z,-1.76
2023-02-15T01:40:53.307Z,-1.62
2023-02-15T01:41:25.045Z,-1.39
2023-02-15T01:41:56.640Z,-1.24
2023-02-15T01:42:29.512Z,-1.11
2023-02-15T01:43:01.272Z,-1.09
2023-02-15T01:43:56.365Z,-1.25
2023-02-15T01:44:46.671Z,-1.50
2023-02-15T01:45:32.494Z,-1.54
2023-02-15T01:46:04.472Z,-1.65
2023-02-15T01:46:42.342Z,-1.71
2023-02-15T01:47:55.610Z,-1.59
2023-02-15T01:48:28.953Z,-1.28
2023-02-15T01:49:04.918Z,-1.40
2023-02-15T01:49:36.616Z,-1.27
2023-02-15T01:50:29.569Z,-1.54
2023-02-15T01:51:03.162Z,-1.60
2023-02-15T01:51:37.849Z,-1.70
2023-02-15T01:52:12.532Z,-1.50
2023-02-15T01:53:13.946Z,-1.27
2023-02-15T01:54:17.995Z,-1.31
2023-02-15T01:54:49.659Z,-1.19
2023-02-15T01:55:23.234Z,-1.11
2023-02-15T01:56:06.287Z,-0.99
2023-02-15T01:56:39.994Z,-1.11
2023-02-15T01:57:19.545Z,-1.06
2023-02-15T01:57:52.083Z,-1.03
2023-02-15T01:58:26.066Z,-0.91
2023-02-15T01:59:01.243Z,-0.93
2023-02-15T01:59:34.103Z,-0.85
2023-02-15T02:00:08.313Z,-0.90
2023-02-15T02:00:46.600Z,-1.10
2023-02-15T02:01:18.830Z,-1.03
2023-02-15T02:01:52.481Z,-0.91
2023-02-15T02:02:26.921Z,-0.88
2023-02-15T02:02:59.009Z,-0.86
2023-02-15T02:04:08.073Z,-0.94
2023-02-15T02:04:46.796Z,-1.24
2023-02-15T02:05:18.459Z,-1.33
2023-02-15T02:05:50.435Z,-1.39
2023-02-15T02:06:22.129Z,-1.51
2023-02-15T02:06:54.411Z,-1.52
2023-02-15T02:07:28.731Z,-1.45
2023-02-15T02:08:02.657Z,-1.50
2023-02-15T02:08:34.614Z,-1.48
2023-02-15T02:09:06.570Z,-1.59
2023-02-15T02:09:38.316Z,-1.54
2023-02-15T02:10:13.843Z,-1.50
2023-02-15T02:10:47.043Z,-1.46
2023-02-15T02:11:19.852Z,-1.50
2023-02-15T02:11:55.170Z,-1.40
2023-02-15T02:12:27.212Z,-1.59
2023-02-15T02:13:04.686Z,-1.60
2023-02-15T02:13:36.304Z,-1.62
2023-02-15T02:14:09.085Z,-1.72
2023-02-15T02:14:41.686Z,-1.67
2023-02-15T02:15:13.784Z,-1.72
2023-02-15T02:16:42.183Z,-1.76
2023-02-15T02:17:23.611Z,-1.80
2023-02-15T02:18:21.968Z,-1.84
2023-02-15T02:18:54.980Z,-1.85
2023-02-15T02:19:47.746Z,-1.99
2023-02-15T02:20:34.076Z,-1.94
2023-02-15T02:21:31.579Z,-1.94
2023-02-15T02:22:21.186Z,-1.87
2023-02-15T02:23:04.425Z,-1.97
2023-02-15T02:23:40.228Z,-1.98
2023-02-15T02:24:24.835Z,-1.99
2023-02-15T02:25:34.296Z,-1.89
2023-02-15T02:26:28.095Z,-1.87
2023-02-15T02:27:15.038Z,-1.89
2023-02-15T02:27:50.785Z,-2.01
2023-02-15T02:28:47.500Z,-2.00
2023-02-15T02:29:39.314Z,-2.01
2023-02-15T02:30:21.000Z,-1.97
2023-02-15T02:31:22.847Z,-2.00
2023-02-15T02:31:54.501Z,-2.02
2023-02-15T02:32:35.217Z,-2.02
2023-02-15T02:33:09.872Z,-2.05
2023-02-15T02:34:05.515Z,-2.00
2023-02-15T02:34:46.936Z,-1.83
2023-02-15T02:35:42.443Z,-1.84
2023-02-15T02:36:26.003Z,-1.78
2023-02-15T02:37:08.407Z,-1.74
2023-02-15T02:38:03.031Z,-1.75
2023-02-15T02:38:49.589Z,-1.87
2023-02-15T02:39:28.906Z,-1.88
2023-02-15T02:40:17.824Z,-1.86
2023-02-15T02:40:58.101Z,-1.98
2023-02-15T02:41:34.651Z,-1.94
2023-02-15T02:42:15.596Z,-1.82
2023-02-15T02:43:19.400Z,-1.89
2023-02-15T02:44:46.213Z,-1.97
2023-02-15T02:45:29.956Z,-1.98
2023-02-15T02:46:19.730Z,-1.97
2023-02-15T02:47:10.712Z,-1.86
2023-02-15T02:47:46.753Z,-1.80
2023-02-15T02:48:22.848Z,-1.73
2023-02-15T02:48:54.886Z,-1.67
2023-02-15T02:49:38.000Z,-1.63
2023-02-15T02:50:14.304Z,-1.84
2023-02-15T02:50:45.823Z,-1.83
2023-02-15T02:51:22.301Z,-1.92
2023-02-15T02:52:05.037Z,-1.89
2023-02-15T02:52:46.414Z,-1.85
2023-02-15T02:53:18.188Z,-1.80
2023-02-15T02:53:54.882Z,-1.78
2023-02-15T02:54:26.493Z,-1.77
2023-02-15T02:54:58.218Z,-1.82
2023-02-15T02:55:37.219Z,-1.72
2023-02-15T02:56:37.494Z,-1.65
2023-02-15T02:57:10.284Z,-1.56
2023-02-15T02:57:54.237Z,-1.51
2023-02-15T02:58:32.720Z,-1.57
2023-02-15T02:59:14.794Z,-1.82
2023-02-15T02:59:47.568Z,-1.76
2023-02-15T03:00:20.655Z,-1.78
2023-02-15T03:00:56.765Z,-1.82
2023-02-15T03:01:35.855Z,-1.79
2023-02-15T03:02:14.773Z,-1.86
2023-02-15T03:02:48.577Z,-1.84
2023-02-15T03:03:28.770Z,-1.84
2023-02-15T03:04:03.300Z,-1.85
2023-02-15T03:04:40.384Z,-1.91
2023-02-15T03:05:16.845Z,-1.85
2023-02-15T03:05:52.288Z,-1.77
2023-02-15T03:06:31.594Z,-1.68
2023-02-15T03:07:07.258Z,-1.70
2023-02-15T03:07:40.398Z,-1.68
2023-02-15T03:08:14.291Z,-1.62
2023-02-15T03:08:50.326Z,-1.67
2023-02-15T03:09:35.591Z,-1.83
2023-02-15T03:10:08.463Z,-1.87
2023-02-15T03:10:41.675Z,-2.00
2023-02-15T03:11:13.768Z,-2.12
2023-02-15T03:11:46.615Z,-2.03
2023-02-15T03:12:26.227Z,-2.04
2023-02-15T03:12:59.177Z,-2.17
2023-02-15T03:13:31.984Z,-2.15
2023-02-15T03:14:03.661Z,-2.33
2023-02-15T03:14:37.724Z,-2.37
2023-02-15T03:15:15.576Z,-2.32
2023-02-15T03:16:08.448Z,-2.18
2023-02-15T03:16:41.429Z,-2.19
2023-02-15T03:17:13.820Z,-2.12
2023-02-15T03:17:49.204Z,-2.16
2023-02-15T03:18:23.901Z,-2.20
2023-02-15T03:19:03.893Z,-2.14
2023-02-15T03:19:38.132Z,-2.12
2023-02-15T03:20:31.944Z,-2.14
2023-02-15T03:21:08.813Z,-2.22
2023-02-15T03:21:58.962Z,-2.24
2023-02-15T03:22:38.403Z,-2.21
2023-02-15T03:23:16.662Z,-2.17
2023-02-15T03:23:55.723Z,-2.15
2023-02-15T03:24:35.840Z,-2.19
2023-02-15T03:25:11.074Z,-2.07
2023-02-15T03:25:45.776Z,-2.06
2023-02-15T03:26:18.135Z,-1.90
2023-02-15T03:26:52.710Z,-1.85
2023-02-15T03:27:27.205Z,-1.87
2023-02-15T03:28:04.843Z,-1.91
2023-02-15T03:28:41.799Z,-1.93
2023-02-15T03:29:14.148Z,-1.92
2023-02-15T03:29:52.470Z,-2.05
2023-02-15T03:30:25.177Z,-2.06
2023-02-15T03:31:01.979Z,-2.09
2023-02-15T03:31:38.879Z,-2.14
2023-02-15T03:32:12.306Z,-2.13
2023-02-15T03:32:44.772Z,-2.13
2023-02-15T03:33:16.918Z,-2.20
2023-02-15T03:33:54.781Z,-2.19
2023-02-15T03:34:26.543Z,-2.25
2023-02-15T03:34:58.402Z,-2.26
2023-02-15T03:35:46.046Z,-2.22
2023-02-15T03:36:36.506Z,-1.79
2023-02-15T03:37:21.296Z,-1.93
2023-02-15T03:38:00.121Z,-1.89
2023-02-15T03:38:39.895Z,-1.90
2023-02-15T03:39:32.217Z,-2.03
2023-02-15T03:40:27.570Z,-1.99
2023-02-15T03:41:12.581Z,-1.99
2023-02-15T03:42:09.961Z,-1.74
2023-02-15T03:42:42.351Z,-1.83
2023-02-15T03:43:23.297Z,-1.91
2023-02-15T03:43:56.264Z,-2.00
2023-02-15T03:44:32.770Z,-2.05
2023-02-15T03:45:11.840Z,-2.06
2023-02-15T03:45:55.581Z,-1.88
2023-02-15T03:46:39.008Z,-1.78
2023-02-15T03:47:15.454Z,-1.53
2023-02-15T03:47:48.352Z,-1.50
2023-02-15T03:48:22.464Z,-1.76
2023-02-15T03:48:56.566Z,-1.85
2023-02-15T03:50:01.953Z,-1.93
2023-02-15T03:50:55.138Z,-2.04
2023-02-15T03:51:35.518Z,-1.91
2023-02-15T03:52:08.275Z,-1.92
2023-02-15T03:52:39.977Z,-1.84
2023-02-15T03:53:14.592Z,-1.82
2023-02-15T03:53:47.804Z,-1.77
2023-02-15T03:54:43.804Z,-1.81
2023-02-15T03:55:15.454Z,-2.06
2023-02-15T03:55:48.425Z,-2.11
2023-02-15T03:56:19.952Z,-2.10
2023-02-15T03:57:11.538Z,-2.05
2023-02-15T03:58:01.568Z,-2.02
2023-02-15T03:58:51.752Z,-2.09
2023-02-15T03:59:41.852Z,-2.06
2023-02-15T04:00:41.663Z,-2.05
2023-02-15T04:01:56.355Z,-2.12
2023-02-15T04:02:35.217Z,-2.14
2023-02-15T04:03:15.814Z,-2.19
2023-02-15T04:03:58.713Z,-2.19
2023-02-15T04:04:38.517Z,-2.12
2023-02-15T04:05:10.080Z,-2.02
2023-02-15T04:05:45.110Z,-2.12
2023-02-15T04:06:16.814Z,-2.16
2023-02-15T04:06:48.449Z,-2.15
2023-02-15T04:07:19.973Z,-2.26
2023-02-15T04:07:51.653Z,-2.44
2023-02-15T04:08:43.155Z,-2.35
2023-02-15T04:09:33.448Z,-2.38
2023-02-15T04:10:25.190Z,-2.50
2023-02-15T04:10:57.260Z,-2.46
2023-02-15T04:11:31.179Z,-2.44
2023-02-15T04:12:02.733Z,-2.44
2023-02-15T04:12:34.290Z,-2.49
2023-02-15T04:13:05.891Z,-2.52
2023-02-15T04:13:37.457Z,-2.65
2023-02-15T04:14:27.535Z,-2.61
2023-02-15T04:15:17.347Z,-2.50
2023-02-15T04:16:04.431Z,-2.66
2023-02-15T04:16:36.795Z,-2.60
2023-02-15T04:17:09.185Z,-2.49
2023-02-15T04:17:40.698Z,-2.51
2023-02-15T04:18:12.237Z,-2.43
2023-02-15T04:19:02.821Z,-2.42
2023-02-15T04:19:52.901Z,-2.56
2023-02-15T04:20:43.012Z,-2.43
2023-02-15T04:21:33.095Z,-2.50
2023-02-15T04:22:23.447Z,-2.48
2023-02-15T04:23:13.396Z,-2.44
2023-02-15T04:24:03.684Z,-2.36
2023-02-15T04:24:53.564Z,-2.24
2023-02-15T04:25:25.336Z,-2.47
2023-02-15T04:25:56.871Z,-2.43
2023-02-15T04:26:28.455Z,-2.40
2023-02-15T04:27:01.291Z,-2.42
2023-02-15T04:27:32.877Z,-2.38
2023-02-15T04:28:04.573Z,-2.43
2023-02-15T04:28:37.106Z,-2.43
2023-02-15T04:29:08.742Z,-2.46
2023-02-15T04:29:40.282Z,-2.44
2023-02-15T04:30:13.591Z,-2.44
2023-02-15T04:30:45.147Z,-2.42
2023-02-15T04:31:18.818Z,-2.42
2023-02-15T04:31:51.609Z,-2.46
2023-02-15T04:32:23.291Z,-2.44
2023-02-15T04:32:55.930Z,-2.49
2023-02-15T04:33:27.462Z,-2.48
2023-02-15T04:33:58.975Z,-2.50
2023-02-15T04:34:30.514Z,-2.51
2023-02-15T04:35:02.302Z,-2.65
2023-02-15T04:35:34.567Z,-2.68
2023-02-15T04:36:06.263Z,-2.75
2023-02-15T04:36:41.374Z,-2.74
2023-02-15T04:37:13.079Z,-2.72
2023-02-15T04:37:45.029Z,-2.72
2023-02-15T04:38:16.605Z,-2.69
2023-02-15T04:38:49.504Z,-2.77
2023-02-15T04:39:21.075Z,-2.76
2023-02-15T04:39:52.624Z,-2.81
2023-02-15T04:40:24.399Z,-2.87
2023-02-15T04:40:55.936Z,-2.78
2023-02-15T04:41:27.489Z,-2.77
2023-02-15T04:42:01.362Z,-2.83
2023-02-15T04:42:33.047Z,-2.78
2023-02-15T04:43:04.678Z,-2.67
2023-02-15T04:43:36.290Z,-2.68
2023-02-15T04:44:07.921Z,-2.64
2023-02-15T04:44:39.642Z,-2.60
2023-02-15T04:45:11.262Z,-2.76
2023-02-15T04:45:42.897Z,-2.67
2023-02-15T04:46:14.516Z,-2.63
2023-02-15T04:46:46.102Z,-2.67
2023-02-15T04:47:17.632Z,-2.69
2023-02-15T04:47:49.461Z,-2.65
2023-02-15T04:48:21.024Z,-2.60
2023-02-15T04:48:52.594Z,-2.55
2023-02-15T04:49:24.177Z,-2.59
2023-02-15T04:49:57.865Z,-2.71
2023-02-15T04:50:29.815Z,-2.68
2023-02-15T04:51:07.568Z,-2.68
2023-02-15T04:51:39.132Z,-2.60
2023-02-15T04:52:10.970Z,-2.57
2023-02-15T04:52:42.583Z,-2.40
2023-02-15T04:53:14.521Z,-2.49
2023-02-15T04:53:46.145Z,-2.53
2023-02-15T04:54:17.716Z,-2.50
2023-02-15T04:54:49.381Z,-2.50
2023-02-15T04:55:20.936Z,-2.45
2023-02-15T04:55:52.566Z,-2.45
2023-02-15T04:56:24.143Z,-2.52
2023-02-15T04:56:55.684Z,-2.44
2023-02-15T04:57:27.264Z,-2.41
2023-02-15T04:57:58.854Z,-2.50
2023-02-15T04:58:30.552Z,-2.51
2023-02-15T04:59:02.120Z,-2.54
2023-02-15T04:59:33.663Z,-2.65
2023-02-15T05:00:06.012Z,-2.61
2023-02-15T05:00:37.572Z,-2.44
2023-02-15T05:01:09.775Z,-2.37
2023-02-15T05:01:41.416Z,-2.40
2023-02-15T05:02:13.435Z,-2.40
2023-02-15T05:02:44.962Z,-2.31
2023-02-15T05:03:18.645Z,-2.40
2023-02-15T05:03:51.148Z,-2.37
2023-02-15T05:04:23.018Z,-2.40
2023-02-15T05:04:54.607Z,-2.44
2023-02-15T05:05:26.307Z,-2.52
2023-02-15T05:05:57.824Z,-2.63
2023-02-15T05:06:29.656Z,-2.59
2023-02-15T05:07:01.429Z,-2.57
2023-02-15T05:07:33.102Z,-2.61
2023-02-15T05:08:04.724Z,-2.22
2023-02-15T05:08:36.350Z,-2.23
2023-02-15T05:09:07.977Z,-2.25
2023-02-15T05:09:39.576Z,-2.22
2023-02-15T05:10:11.389Z,-2.19
2023-02-15T05:10:43.005Z,-2.16
2023-02-15T05:11:14.593Z,-2.17
2023-02-15T05:11:46.523Z,-2.30
2023-02-15T05:12:18.062Z,-2.35
2023-02-15T05:12:49.627Z,-2.41
2023-02-15T05:13:21.347Z,-2.47
2023-02-15T05:13:52.972Z,-2.45
2023-02-15T05:14:24.563Z,-2.42
2023-02-15T05:14:56.101Z,-2.36
2023-02-15T05:15:27.624Z,-2.39
2023-02-15T05:15:59.423Z,-2.43
2023-02-15T05:16:31.391Z,-2.45
2023-02-15T05:17:04.225Z,-2.50
2023-02-15T05:17:35.787Z,-2.51
2023-02-15T05:18:08.229Z,-2.49
2023-02-15T05:18:39.762Z,-2.60
2023-02-15T05:19:11.378Z,-2.57
2023-02-15T05:19:42.976Z,-2.51
2023-02-15T05:20:14.844Z,-2.55
2023-02-15T05:20:46.692Z,-2.54
2023-02-15T05:21:18.251Z,-2.57
2023-02-15T05:21:49.767Z,-2.57
2023-02-15T05:22:21.411Z,-2.56
2023-02-15T05:22:55.797Z,-2.61
2023-02-15T05:23:27.415Z,-2.54
2023-02-15T05:23:59.140Z,-2.48
2023-02-15T05:24:49.146Z,-2.43
2023-02-15T05:25:39.225Z,-2.47
2023-02-15T05:26:36.253Z,-2.47
2023-02-15T05:27:29.978Z,-2.46
2023-02-15T05:28:19.928Z,-2.53
2023-02-15T05:28:51.481Z,-2.50
2023-02-15T05:29:22.992Z,-2.50
2023-02-15T05:29:54.742Z,-2.43
2023-02-15T05:30:26.406Z,-2.43
2023-02-15T05:31:04.008Z,-2.43
2023-02-15T05:31:36.415Z,-2.30
2023-02-15T05:32:08.307Z,-2.17
2023-02-15T05:32:40.417Z,-2.18
2023-02-15T05:33:12.108Z,-2.17
2023-02-15T05:33:44.511Z,-2.23
2023-02-15T05:34:16.063Z,-2.24
2023-02-15T05:34:47.611Z,-2.23
2023-02-15T05:35:19.117Z,-2.04
2023-02-15T05:35:50.676Z,-1.94
2023-02-15T05:36:22.212Z,-2.07
2023-02-15T05:36:53.845Z,-2.17
2023-02-15T05:37:26.303Z,-2.21
2023-02-15T05:37:57.872Z,-2.25
2023-02-15T05:38:30.222Z,-2.25
2023-02-15T05:39:01.759Z,-2.05
2023-02-15T05:39:33.304Z,-2.16
2023-02-15T05:40:05.455Z,-2.16
2023-02-15T05:40:37.003Z,-2.17
2023-02-15T05:41:10.159Z,-2.21
2023-02-15T05:41:41.677Z,-2.25
2023-02-15T05:42:13.216Z,-2.27
2023-02-15T05:42:44.854Z,-2.30
2023-02-15T05:43:18.792Z,-2.33
2023-02-15T05:43:50.364Z,-2.34
2023-02-15T05:44:21.897Z,-2.32
2023-02-15T05:44:53.468Z,-2.42
2023-02-15T05:45:25.538Z,-2.56
2023-02-15T05:45:57.129Z,-2.36
2023-02-15T05:46:28.739Z,-2.28
2023-02-15T05:47:00.316Z,-2.23
2023-02-15T05:47:31.902Z,-2.06
2023-02-15T05:48:03.583Z,-2.19
2023-02-15T05:48:35.613Z,-2.14
2023-02-15T05:49:07.319Z,-2.22
2023-02-15T05:49:38.976Z,-2.05
2023-02-15T05:50:11.581Z,-1.85
2023-02-15T05:50:43.171Z,-1.73
2023-02-15T05:51:15.993Z,-1.60
2023-02-15T05:51:47.538Z,-1.59
2023-02-15T05:52:19.065Z,-1.56
2023-02-15T05:52:52.430Z,-1.52
2023-02-15T05:53:24.116Z,-1.70
2023-02-15T05:53:55.618Z,-1.62
2023-02-15T05:54:27.564Z,-1.71
2023-02-15T05:55:01.161Z,-1.70
2023-02-15T05:55:32.805Z,-1.66
2023-02-15T05:56:05.717Z,-1.61
2023-02-15T05:56:37.254Z,-1.79
2023-02-15T05:57:08.827Z,-1.82
2023-02-15T05:57:40.405Z,-1.80
2023-02-15T05:58:11.938Z,-1.66
2023-02-15T05:58:43.547Z,-1.54
2023-02-15T05:59:15.231Z,-1.42
2023-02-15T05:59:46.780Z,-1.36
2023-02-15T06:00:18.681Z,-1.32
2023-02-15T06:00:50.621Z,-1.40
2023-02-15T06:01:23.892Z,-1.43
2023-02-15T06:01:55.462Z,-1.45
2023-02-15T06:02:27.082Z,-1.53
2023-02-15T06:02:58.904Z,-1.57
2023-02-15T06:03:30.511Z,-1.54
2023-02-15T06:04:02.050Z,-1.53
2023-02-15T06:04:33.592Z,-1.57
2023-02-15T06:05:06.212Z,-1.54
2023-02-15T06:05:37.731Z,-1.54
2023-02-15T06:06:09.544Z,-1.42
2023-02-15T06:06:41.146Z,-1.45
2023-02-15T06:07:13.325Z,-1.47
2023-02-15T06:07:45.821Z,-1.47
2023-02-15T06:08:17.431Z,-1.51
2023-02-15T06:08:48.992Z,-1.58
2023-02-15T06:09:20.769Z,-1.64
2023-02-15T06:09:53.164Z,-1.62
2023-02-15T06:10:24.661Z,-1.66
2023-02-15T06:10:56.194Z,-1.69
2023-02-15T06:11:27.757Z,-1.76
2023-02-15T06:11:59.289Z,-1.71
2023-02-15T06:12:30.997Z,-1.68
2023-02-15T06:13:02.507Z,-1.65
2023-02-15T06:13:37.275Z,-1.70
2023-02-15T06:14:10.140Z,-1.78
2023-02-15T06:14:41.746Z,-1.79
2023-02-15T06:15:13.344Z,-1.95
2023-02-15T06:15:44.956Z,-1.95
2023-02-15T06:16:17.209Z,-1.95
2023-02-15T06:16:48.787Z,-2.05
2023-02-15T06:17:22.517Z,-2.11
2023-02-15T06:17:54.083Z,-2.06
2023-02-15T06:18:26.013Z,-2.07
2023-02-15T06:18:57.624Z,-2.05
2023-02-15T06:19:29.331Z,-2.05
2023-02-15T06:20:00.898Z,-2.08
2023-02-15T06:20:32.484Z,-2.08
2023-02-15T06:21:04.043Z,-2.01
2023-02-15T06:21:35.580Z,-1.98
2023-02-15T06:22:07.522Z,-2.03
2023-02-15T06:22:39.128Z,-2.06
2023-02-15T06:23:10.738Z,-2.14
2023-02-15T06:23:42.424Z,-2.17
2023-02-15T06:24:14.096Z,-2.02
2023-02-15T06:24:45.709Z,-1.97
2023-02-15T06:25:17.390Z,-1.99
2023-02-15T06:25:49.250Z,-1.96
2023-02-15T06:26:20.852Z,-1.92
2023-02-15T06:26:55.523Z,-1.85
2023-02-15T06:27:27.042Z,-1.82
2023-02-15T06:27:58.592Z,-1.84
2023-02-15T06:28:30.184Z,-1.93
2023-02-15T06:29:01.763Z,-2.00
2023-02-15T06:29:33.363Z,-2.05
2023-02-15T06:30:06.792Z,-1.99
2023-02-15T06:30:38.402Z,-1.99
2023-02-15T06:31:10.196Z,-2.05
2023-02-15T06:31:41.924Z,-2.11
2023-02-15T06:32:13.508Z,-2.05
2023-02-15T06:32:45.398Z,-2.05
2023-02-15T06:33:16.929Z,-2.01
2023-02-15T06:33:48.520Z,-2.12
2023-02-15T06:34:20.080Z,-2.09
2023-02-15T06:34:52.318Z,-2.15
2023-02-15T06:35:23.956Z,-1.98
2023-02-15T06:35:55.539Z,-1.99
2023-02-15T06:36:30.743Z,-2.02
2023-02-15T06:37:02.295Z,-2.06
2023-02-15T06:37:33.840Z,-2.03
2023-02-15T06:38:05.384Z,-2.07
2023-02-15T06:38:37.059Z,-2.13
2023-02-15T06:39:08.952Z,-2.14
2023-02-15T06:39:40.474Z,-2.14
2023-02-15T06:40:12.352Z,-2.20
2023-02-15T06:40:43.936Z,-2.17
2023-02-15T06:41:15.441Z,-2.07
2023-02-15T06:41:47.014Z,-2.06
2023-02-15T06:42:19.273Z,-2.02
2023-02-15T06:42:51.184Z,-2.09
2023-02-15T06:43:22.773Z,-2.15
2023-02-15T06:43:54.383Z,-2.12
2023-02-15T06:44:26.103Z,-2.11
2023-02-15T06:44:57.696Z,-2.09
2023-02-15T06:45:29.245Z,-2.13
2023-02-15T06:46:01.832Z,-2.14
2023-02-15T06:46:33.633Z,-2.05
2023-02-15T06:47:05.308Z,-1.97
2023-02-15T06:47:37.361Z,-2.00
2023-02-15T06:48:09.337Z,-2.06
2023-02-15T06:48:40.902Z,-2.13
2023-02-15T06:49:12.443Z,-2.13
2023-02-15T06:49:44.042Z,-2.14
2023-02-15T06:50:15.611Z,-2.05
2023-02-15T06:50:47.192Z,-2.03
2023-02-15T06:51:18.737Z,-2.08
2023-02-15T06:51:50.296Z,-2.02
2023-02-15T06:52:21.944Z,-2.00
2023-02-15T06:52:57.853Z,-1.96
2023-02-15T06:53:29.683Z,-2.00
2023-02-15T06:54:01.359Z,-2.02
2023-02-15T06:54:32.904Z,-1.97
2023-02-15T06:55:04.712Z,-1.97
2023-02-15T06:55:37.814Z,-2.11
2023-02-15T06:56:10.640Z,-2.10
2023-02-15T06:56:44.539Z,-2.15
2023-02-15T06:57:16.298Z,-2.15
2023-02-15T06:57:50.496Z,-2.13
2023-02-15T06:58:22.656Z,-2.11
2023-02-15T06:58:54.392Z,-2.06
2023-02-15T06:59:26.026Z,-2.06
2023-02-15T06:59:59.349Z,-2.11
2023-02-15T07:00:30.929Z,-2.08
2023-02-15T07:01:02.525Z,-2.05
2023-02-15T07:01:34.062Z,-2.12
2023-02-15T07:02:05.706Z,-2.11
2023-02-15T07:02:37.339Z,-2.10
2023-02-15T07:03:09.931Z,-2.13
2023-02-15T07:03:41.485Z,-2.09
2023-02-15T07:04:13.055Z,-2.02
2023-02-15T07:04:44.597Z,-1.99
2023-02-15T07:05:17.725Z,-2.01
2023-02-15T07:05:50.102Z,-1.98
2023-02-15T07:06:22.618Z,-2.05
2023-02-15T07:06:54.309Z,-2.01
2023-02-15T07:07:26.116Z,-1.97
2023-02-15T07:07:58.768Z,-1.93
2023-02-15T07:08:30.463Z,-1.96
2023-02-15T07:09:02.017Z,-1.97
2023-02-15T07:09:33.515Z,-1.97
2023-02-15T07:10:05.706Z,-1.96
2023-02-15T07:10:37.252Z,-1.96
2023-02-15T07:11:27.693Z,-2.01
2023-02-15T07:12:18.078Z,-1.98
2023-02-15T07:12:49.687Z,-1.96
2023-02-15T07:13:21.522Z,-1.87
2023-02-15T07:13:53.619Z,-1.85
2023-02-15T07:14:25.850Z,-1.84
2023-02-15T07:14:59.247Z,-1.85
2023-02-15T07:15:31.064Z,-1.88
2023-02-15T07:16:02.895Z,-1.83
2023-02-15T07:16:34.678Z,-1.80
2023-02-15T07:17:11.707Z,-1.78
2023-02-15T07:17:46.393Z,-1.81
2023-02-15T07:18:17.972Z,-1.80
2023-02-15T07:18:49.489Z,-1.78
2023-02-15T07:19:21.193Z,-1.74
2023-02-15T07:19:52.841Z,-1.74
2023-02-15T07:20:24.873Z,-1.76
2023-02-15T07:20:56.517Z,-1.73
2023-02-15T07:21:28.281Z,-1.71
2023-02-15T07:21:59.898Z,-1.66
2023-02-15T07:22:31.479Z,-1.64
2023-02-15T07:23:03.312Z,-1.64
2023-02-15T07:23:39.131Z,-1.58
2023-02-15T07:24:12.709Z,-1.69
2023-02-15T07:24:44.337Z,-1.62
2023-02-15T07:25:16.253Z,-1.61
2023-02-15T07:26:01.103Z,-1.63
2023-02-15T07:26:34.015Z,-1.60
2023-02-15T07:27:07.880Z,-1.53
2023-02-15T07:27:40.128Z,-1.59
2023-02-15T07:28:11.643Z,-1.53
2023-02-15T07:28:43.244Z,-1.50
2023-02-15T07:29:14.835Z,-1.44
2023-02-15T07:29:46.443Z,-1.44